sensor_id;sensor_type;location;lat;lon;timestamp;pressure;altitude;pressure_sealevel;temperature;humidity
7105;BME280;3594;42.152;24.714;2023-02-13T00:00:33;-23954.00;;;4.92;84.50
7105;BME280;3594;42.152;24.714;2023-02-13T00:02:59;-23954.41;;;4.94;85.33
7105;BME280;3594;42.152;24.714;2023-02-13T00:05:25;-23947.44;;;4.69;84.47
7105;BME280;3594;42.152;24.714;2023-02-13T00:07:50;-23955.13;;;4.96;83.79
7105;BME280;3594;42.152;24.714;2023-02-13T00:10:16;-23951.72;;;4.84;84.75
7105;BME280;3594;42.152;24.714;2023-02-13T00:12:41;-23944.47;;;4.58;86.17
7105;BME280;3594;42.152;24.714;2023-02-13T00:15:07;-23945.88;;;4.63;87.29
7105;BME280;3594;42.152;24.714;2023-02-13T00:17:33;-23943.75;;;4.56;86.99
7105;BME280;3594;42.152;24.714;2023-02-13T00:19:58;-23939.06;;;4.39;87.07
7105;BME280;3594;42.152;24.714;2023-02-13T00:22:24;-23944.75;;;4.59;87.15
7105;BME280;3594;42.152;24.714;2023-02-13T00:24:49;-23945.75;;;4.63;87.33
7105;BME280;3594;42.152;24.714;2023-02-13T00:27:15;-23937.63;;;4.34;88.28
7105;BME280;3594;42.152;24.714;2023-02-13T00:29:41;-23942.31;;;4.51;87.63
7105;BME280;3594;42.152;24.714;2023-02-13T00:32:06;-23943.19;;;4.54;87.89
7105;BME280;3594;42.152;24.714;2023-02-13T00:34:32;-23938.34;;;4.36;87.80
7105;BME280;3594;42.152;24.714;2023-02-13T00:36:57;-23945.75;;;4.63;87.26
7105;BME280;3594;42.152;24.714;2023-02-13T00:39:23;-23940.34;;;4.43;87.04
7105;BME280;3594;42.152;24.714;2023-02-13T00:41:48;-23937.47;;;4.33;88.15
7105;BME280;3594;42.152;24.714;2023-02-13T00:44:14;-23937.47;;;4.33;88.02
7105;BME280;3594;42.152;24.714;2023-02-13T00:46:39;-23938.63;;;4.37;88.35
7105;BME280;3594;42.152;24.714;2023-02-13T00:49:05;-23936.06;;;4.28;88.81
7105;BME280;3594;42.152;24.714;2023-02-13T00:51:30;-23945.75;;;4.63;88.47
7105;BME280;3594;42.152;24.714;2023-02-13T00:53:56;-23943.19;;;4.54;87.96
7105;BME280;3594;42.152;24.714;2023-02-13T00:56:21;-23938.47;;;4.37;87.94
7105;BME280;3594;42.152;24.714;2023-02-13T00:58:47;-23939.34;;;4.40;88.23
7105;BME280;3594;42.152;24.714;2023-02-13T01:01:13;-23944.03;;;4.57;87.63
7105;BME280;3594;42.152;24.714;2023-02-13T01:03:38;-23945.75;;;4.63;88.04
7105;BME280;3594;42.152;24.714;2023-02-13T01:06:04;-23940.03;;;4.42;87.56
7105;BME280;3594;42.152;24.714;2023-02-13T01:08:30;-23944.75;;;4.59;88.56
7105;BME280;3594;42.152;24.714;2023-02-13T01:10:56;-23946.59;;;4.66;87.25
7105;BME280;3594;42.152;24.714;2023-02-13T01:13:21;-23954.72;;;4.95;86.49
7105;BME280;3594;42.152;24.714;2023-02-13T01:15:48;-23953.28;;;4.89;86.60
7105;BME280;3594;42.152;24.714;2023-02-13T01:18:16;-23949.72;;;4.77;87.24
7105;BME280;3594;42.152;24.714;2023-02-13T01:20:42;-23949.44;;;4.76;87.91
7105;BME280;3594;42.152;24.714;2023-02-13T01:23:11;-23956.25;;;5.00;87.12
7105;BME280;3594;42.152;24.714;2023-02-13T01:25:43;-23954.28;;;4.93;86.91
7105;BME280;3594;42.152;24.714;2023-02-13T01:28:08;-23940.19;;;4.43;89.89
7105;BME280;3594;42.152;24.714;2023-02-13T01:30:34;-23941.91;;;4.49;90.41
7105;BME280;3594;42.152;24.714;2023-02-13T01:32:59;-23938.34;;;4.36;92.06
7105;BME280;3594;42.152;24.714;2023-02-13T01:35:25;-23934.78;;;4.24;93.93
7105;BME280;3594;42.152;24.714;2023-02-13T01:37:50;-23934.34;;;4.22;94.67
7105;BME280;3594;42.152;24.714;2023-02-13T01:40:16;-23927.50;;;3.98;96.65
7105;BME280;3594;42.152;24.714;2023-02-13T01:42:41;-23913.13;;;3.47;98.83
7105;BME280;3594;42.152;24.714;2023-02-13T01:45:24;-23921.69;;;3.77;100.00
7105;BME280;3594;42.152;24.714;2023-02-13T01:47:53;-23912.84;;;3.46;100.00
7105;BME280;3594;42.152;24.714;2023-02-13T01:50:41;-23909.69;;;3.35;100.00
7105;BME280;3594;42.152;24.714;2023-02-13T01:55:50;-23898.44;;;2.95;100.00
7105;BME280;3594;42.152;24.714;2023-02-13T01:58:20;-23896.59;;;2.88;100.00
7105;BME280;3594;42.152;24.714;2023-02-13T02:00:47;-23877.88;;;2.22;100.00
7105;BME280;3594;42.152;24.714;2023-02-13T02:03:21;-23883.59;;;2.42;100.00
7105;BME280;3594;42.152;24.714;2023-02-13T02:05:48;-23870.47;;;1.96;100.00
7105;BME280;3594;42.152;24.714;2023-02-13T02:08:15;-23871.19;;;1.98;100.00
7105;BME280;3594;42.152;24.714;2023-02-13T02:10:41;-23871.31;;;1.99;100.00
7105;BME280;3594;42.152;24.714;2023-02-13T02:13:16;-23878.31;;;2.23;100.00
7105;BME280;3594;42.152;24.714;2023-02-13T02:15:46;-23869.88;;;1.94;100.00
7105;BME280;3594;42.152;24.714;2023-02-13T02:18:18;-23864.03;;;1.73;100.00
7105;BME280;3594;42.152;24.714;2023-02-13T02:45:41;-23856.31;;;1.46;100.00
7105;BME280;3594;42.152;24.714;2023-02-13T02:48:21;-23855.03;;;1.41;100.00
7105;BME280;3594;42.152;24.714;2023-02-13T02:51:17;-23852.44;;;1.32;100.00
7105;BME280;3594;42.152;24.714;2023-02-13T02:56:54;-23844.31;;;1.03;100.00
7105;BME280;3594;42.152;24.714;2023-02-13T02:59:21;-23840.28;;;0.89;100.00
7105;BME280;3594;42.152;24.714;2023-02-13T03:02:07;-23834.16;;;0.67;100.00
7105;BME280;3594;42.152;24.714;2023-02-13T03:04:53;-23837.56;;;0.79;100.00
7105;BME280;3594;42.152;24.714;2023-02-13T03:07:39;-23833.56;;;0.65;100.00
7105;BME280;3594;42.152;24.714;2023-02-13T03:10:08;-23833.56;;;0.65;100.00
7105;BME280;3594;42.152;24.714;2023-02-13T03:13:12;-23840.00;;;0.88;100.00
7105;BME280;3594;42.152;24.714;2023-02-13T03:15:49;-23834.16;;;0.67;100.00
7105;BME280;3594;42.152;24.714;2023-02-13T03:18:38;-23829.13;;;0.50;100.00
7105;BME280;3594;42.152;24.714;2023-02-13T03:30:18;-23816.41;;;0.05;100.00
7105;BME280;3594;42.152;24.714;2023-02-13T03:35:46;-23819.41;;;0.15;100.00
7105;BME280;3594;42.152;24.714;2023-02-13T03:42:11;-23816.53;;;0.05;100.00
7105;BME280;3594;42.152;24.714;2023-02-13T03:44:18;-23805.09;;;-0.35;100.00
7105;BME280;3594;42.152;24.714;2023-02-13T03:46:49;-23784.59;;;-1.08;100.00
7105;BME280;3594;42.152;24.714;2023-02-13T03:49:22;-23810.09;;;-0.18;100.00
7105;BME280;3594;42.152;24.714;2023-02-13T03:54:46;-23800.06;;;-0.53;100.00
7105;BME280;3594;42.152;24.714;2023-02-13T03:57:34;-23799.22;;;-0.56;100.00
7105;BME280;3594;42.152;24.714;2023-02-13T04:00:19;-23798.19;;;-0.60;100.00
7105;BME280;3594;42.152;24.714;2023-02-13T04:03:10;-23802.06;;;-0.46;100.00
7105;BME280;3594;42.152;24.714;2023-02-13T04:05:42;-23801.50;;;-0.48;100.00
7105;BME280;3594;42.152;24.714;2023-02-13T04:08:09;-23796.91;;;-0.64;100.00
7105;BME280;3594;42.152;24.714;2023-02-13T04:10:43;-23792.47;;;-0.80;100.00
7105;BME280;3594;42.152;24.714;2023-02-13T04:13:19;-23797.34;;;-0.63;100.00
7105;BME280;3594;42.152;24.714;2023-02-13T04:15:49;-23796.78;;;-0.65;100.00
7105;BME280;3594;42.152;24.714;2023-02-13T04:18:33;-23797.63;;;-0.62;100.00
7105;BME280;3594;42.152;24.714;2023-02-13T04:21:03;-23787.16;;;-0.99;100.00
7105;BME280;3594;42.152;24.714;2023-02-13T04:23:29;-23788.59;;;-0.94;100.00
7105;BME280;3594;42.152;24.714;2023-02-13T04:25:55;-23787.59;;;-0.97;100.00
7105;BME280;3594;42.152;24.714;2023-02-13T04:28:21;-23783.59;;;-1.11;100.00
7105;BME280;3594;42.152;24.714;2023-02-13T04:30:47;-23791.47;;;-0.83;100.00
7105;BME280;3594;42.152;24.714;2023-02-13T04:33:14;-23794.47;;;-0.73;100.00
7105;BME280;3594;42.152;24.714;2023-02-13T04:35:39;-23783.72;;;-1.11;100.00
7105;BME280;3594;42.152;24.714;2023-02-13T04:38:05;-23782.28;;;-1.16;100.00
7105;BME280;3594;42.152;24.714;2023-02-13T04:40:30;-23792.03;;;-0.81;100.00
7105;BME280;3594;42.152;24.714;2023-02-13T04:42:56;-23782.28;;;-1.16;100.00
7105;BME280;3594;42.152;24.714;2023-02-13T04:45:21;-23788.03;;;-0.96;100.00
7105;BME280;3594;42.152;24.714;2023-02-13T04:47:51;-23790.59;;;-0.86;100.00
7105;BME280;3594;42.152;24.714;2023-02-13T04:50:16;-23791.59;;;-0.83;100.00
7105;BME280;3594;42.152;24.714;2023-02-13T04:52:42;-23781.72;;;-1.18;100.00
7105;BME280;3594;42.152;24.714;2023-02-13T04:55:08;-23786.31;;;-1.02;100.00
7105;BME280;3594;42.152;24.714;2023-02-13T04:57:33;-23786.88;;;-1.00;100.00
7105;BME280;3594;42.152;24.714;2023-02-13T04:59:58;-23775.53;;;-1.40;100.00
7105;BME280;3594;42.152;24.714;2023-02-13T05:02:24;-23781.56;;;-1.18;100.00
7105;BME280;3594;42.152;24.714;2023-02-13T05:04:49;-23778.84;;;-1.28;100.00
7105;BME280;3594;42.152;24.714;2023-02-13T05:07:15;-23784.44;;;-1.08;100.00
7105;BME280;3594;42.152;24.714;2023-02-13T05:09:40;-23784.88;;;-1.07;100.00
7105;BME280;3594;42.152;24.714;2023-02-13T05:12:06;-23785.88;;;-1.03;100.00
7105;BME280;3594;42.152;24.714;2023-02-13T05:14:31;-23782.28;;;-1.16;100.00
7105;BME280;3594;42.152;24.714;2023-02-13T05:16:56;-23776.56;;;-1.36;100.00
7105;BME280;3594;42.152;24.714;2023-02-13T05:19:22;-23775.13;;;-1.41;100.00
7105;BME280;3594;42.152;24.714;2023-02-13T05:21:47;-23770.53;;;-1.57;100.00
7105;BME280;3594;42.152;24.714;2023-02-13T05:24:31;-23771.81;;;-1.53;100.00
7105;BME280;3594;42.152;24.714;2023-02-13T05:26:56;-23774.81;;;-1.42;100.00
7105;BME280;3594;42.152;24.714;2023-02-13T05:29:22;-23775.25;;;-1.41;100.00
7105;BME280;3594;42.152;24.714;2023-02-13T05:31:52;-23774.53;;;-1.43;100.00
7105;BME280;3594;42.152;24.714;2023-02-13T05:34:22;-23779.56;;;-1.25;100.00
7105;BME280;3594;42.152;24.714;2023-02-13T05:36:48;-23772.69;;;-1.50;100.00
7105;BME280;3594;42.152;24.714;2023-02-13T05:39:15;-23783.72;;;-1.11;100.00
7105;BME280;3594;42.152;24.714;2023-02-13T05:41:41;-23777.84;;;-1.31;100.00
7105;BME280;3594;42.152;24.714;2023-02-13T05:44:07;-23780.56;;;-1.22;100.00
7105;BME280;3594;42.152;24.714;2023-02-13T05:46:33;-23790.59;;;-0.86;100.00
7105;BME280;3594;42.152;24.714;2023-02-13T05:48:59;-23789.16;;;-0.92;100.00
7105;BME280;3594;42.152;24.714;2023-02-13T05:51:24;-23781.13;;;-1.20;100.00
7105;BME280;3594;42.152;24.714;2023-02-13T05:53:50;-23786.88;;;-1.00;100.00
7105;BME280;3594;42.152;24.714;2023-02-13T05:56:15;-23785.44;;;-1.05;100.00
7105;BME280;3594;42.152;24.714;2023-02-13T05:58:41;-23779.84;;;-1.24;100.00
7105;BME280;3594;42.152;24.714;2023-02-13T06:01:06;-23790.19;;;-0.88;100.00
7105;BME280;3594;42.152;24.714;2023-02-13T06:03:32;-23785.44;;;-1.05;100.00
7105;BME280;3594;42.152;24.714;2023-02-13T06:05:58;-23786.59;;;-1.01;100.00
7105;BME280;3594;42.152;24.714;2023-02-13T06:08:24;-23788.75;;;-0.93;100.00
7105;BME280;3594;42.152;24.714;2023-02-13T06:10:50;-23800.22;;;-0.53;100.00
7105;BME280;3594;42.152;24.714;2023-02-13T06:13:16;-23796.63;;;-0.65;100.00
7105;BME280;3594;42.152;24.714;2023-02-13T06:15:41;-23798.34;;;-0.59;100.00
7105;BME280;3594;42.152;24.714;2023-02-13T06:18:07;-23808.09;;;-0.25;100.00
7105;BME280;3594;42.152;24.714;2023-02-13T06:20:33;-23810.97;;;-0.15;100.00
7105;BME280;3594;42.152;24.714;2023-02-13T06:22:59;-23805.94;;;-0.32;100.00
7105;BME280;3594;42.152;24.714;2023-02-13T06:25:24;-23807.22;;;-0.28;100.00
7105;BME280;3594;42.152;24.714;2023-02-13T06:27:49;-23820.69;;;0.20;100.00
7105;BME280;3594;42.152;24.714;2023-02-13T06:30:16;-23817.97;;;0.10;100.00
7105;BME280;3594;42.152;24.714;2023-02-13T06:32:42;-23820.41;;;0.19;100.00
7105;BME280;3594;42.152;24.714;2023-02-13T06:35:08;-23818.53;;;0.12;100.00
7105;BME280;3594;42.152;24.714;2023-02-13T06:37:34;-23828.13;;;0.46;100.00
7105;BME280;3594;42.152;24.714;2023-02-13T06:39:59;-23833.16;;;0.64;100.00
7105;BME280;3594;42.152;24.714;2023-02-13T06:42:25;-23831.00;;;0.56;100.00
7105;BME280;3594;42.152;24.714;2023-02-13T06:44:50;-23835.56;;;0.72;100.00
7105;BME280;3594;42.152;24.714;2023-02-13T06:47:16;-23835.88;;;0.73;100.00
7105;BME280;3594;42.152;24.714;2023-02-13T06:49:41;-23847.16;;;1.13;100.00
7105;BME280;3594;42.152;24.714;2023-02-13T06:52:06;-23841.72;;;0.94;100.00
7105;BME280;3594;42.152;24.714;2023-02-13T06:54:32;-23858.31;;;1.53;100.00
7105;BME280;3594;42.152;24.714;2023-02-13T06:56:57;-23863.75;;;1.72;100.00
7105;BME280;3594;42.152;24.714;2023-02-13T06:59:23;-23862.31;;;1.67;100.00
7105;BME280;3594;42.152;24.714;2023-02-13T07:01:48;-23860.16;;;1.59;100.00
7105;BME280;3594;42.152;24.714;2023-02-13T07:04:14;-23871.31;;;1.99;100.00
7105;BME280;3594;42.152;24.714;2023-02-13T07:06:39;-23868.16;;;1.88;100.00
7105;BME280;3594;42.152;24.714;2023-02-13T07:09:04;-23867.88;;;1.87;100.00
7105;BME280;3594;42.152;24.714;2023-02-13T07:11:30;-23876.47;;;2.17;100.00
7105;BME280;3594;42.152;24.714;2023-02-13T07:13:56;-23873.75;;;2.07;100.00
7105;BME280;3594;42.152;24.714;2023-02-13T07:16:21;-23876.47;;;2.17;100.00
7105;BME280;3594;42.152;24.714;2023-02-13T07:18:47;-23888.44;;;2.59;100.00
7105;BME280;3594;42.152;24.714;2023-02-13T07:21:13;-23881.75;;;2.36;100.00
7105;BME280;3594;42.152;24.714;2023-02-13T07:23:38;-23883.75;;;2.43;100.00
7105;BME280;3594;42.152;24.714;2023-02-13T07:26:04;-23890.16;;;2.65;100.00
7105;BME280;3594;42.152;24.714;2023-02-13T07:28:30;-23878.03;;;2.22;100.00
7105;BME280;3594;42.152;24.714;2023-02-13T07:30:55;-23878.59;;;2.25;100.00
7105;BME280;3594;42.152;24.714;2023-02-13T07:33:21;-23885.59;;;2.49;100.00
7105;BME280;3594;42.152;24.714;2023-02-13T07:35:48;-23876.75;;;2.18;100.00
7105;BME280;3594;42.152;24.714;2023-02-13T07:38:14;-23889.72;;;2.64;100.00
7105;BME280;3594;42.152;24.714;2023-02-13T07:40:39;-23902.84;;;3.10;100.00
7105;BME280;3594;42.152;24.714;2023-02-13T07:43:05;-23901.28;;;3.05;100.00
7105;BME280;3594;42.152;24.714;2023-02-13T07:45:30;-23904.72;;;3.17;100.00
7105;BME280;3594;42.152;24.714;2023-02-13T07:47:56;-23896.88;;;2.89;100.00
7105;BME280;3594;42.152;24.714;2023-02-13T07:50:22;-23896.59;;;2.88;100.00
7105;BME280;3594;42.152;24.714;2023-02-13T07:52:58;-23913.84;;;3.49;100.00
7105;BME280;3594;42.152;24.714;2023-02-13T07:55:24;-23916.41;;;3.59;100.00
7105;BME280;3594;42.152;24.714;2023-02-13T07:57:50;-23897.88;;;2.93;100.00
7105;BME280;3594;42.152;24.714;2023-02-13T08:00:17;-23918.41;;;3.66;100.00
7105;BME280;3594;42.152;24.714;2023-02-13T08:02:44;-23916.41;;;3.59;100.00
7105;BME280;3594;42.152;24.714;2023-02-13T08:05:09;-23924.53;;;3.87;100.00
7105;BME280;3594;42.152;24.714;2023-02-13T08:07:35;-23924.38;;;3.87;100.00
7105;BME280;3594;42.152;24.714;2023-02-13T08:10:01;-23933.94;;;4.21;100.00
7105;BME280;3594;42.152;24.714;2023-02-13T08:12:45;-23940.03;;;4.42;100.00
7105;BME280;3594;42.152;24.714;2023-02-13T08:15:12;-23938.06;;;4.35;100.00
7105;BME280;3594;42.152;24.714;2023-02-13T08:17:38;-23946.88;;;4.67;100.00
7105;BME280;3594;42.152;24.714;2023-02-13T08:20:04;-23949.59;;;4.76;100.00
7105;BME280;3594;42.152;24.714;2023-02-13T08:22:33;-23945.88;;;4.63;100.00
7105;BME280;3594;42.152;24.714;2023-02-13T08:24:59;-23955.41;;;4.97;100.00
7105;BME280;3594;42.152;24.714;2023-02-13T08:27:24;-23953.56;;;4.90;100.00
7105;BME280;3594;42.152;24.714;2023-02-13T08:29:50;-23956.25;;;5.00;100.00
7105;BME280;3594;42.152;24.714;2023-02-13T08:32:16;-23959.97;;;5.13;100.00
7105;BME280;3594;42.152;24.714;2023-02-13T08:34:41;-23949.59;;;4.76;100.00
7105;BME280;3594;42.152;24.714;2023-02-13T08:37:07;-23953.84;;;4.92;100.00
7105;BME280;3594;42.152;24.714;2023-02-13T08:39:32;-23969.06;;;5.46;97.80
7105;BME280;3594;42.152;24.714;2023-02-13T08:41:57;-23968.94;;;5.45;97.05
7105;BME280;3594;42.152;24.714;2023-02-13T08:44:23;-23960.69;;;5.16;97.83
7105;BME280;3594;42.152;24.714;2023-02-13T08:46:48;-23968.50;;;5.44;96.54
7105;BME280;3594;42.152;24.714;2023-02-13T08:49:14;-23963.09;;;5.24;98.72
7105;BME280;3594;42.152;24.714;2023-02-13T08:51:39;-23965.22;;;5.32;95.94
7105;BME280;3594;42.152;24.714;2023-02-13T08:54:04;-23971.06;;;5.53;95.92
7105;BME280;3594;42.152;24.714;2023-02-13T08:56:30;-23976.47;;;5.72;95.49
7105;BME280;3594;42.152;24.714;2023-02-13T08:58:55;-23982.44;;;5.93;93.78
7105;BME280;3594;42.152;24.714;2023-02-13T09:01:21;-23985.13;;;6.03;92.92
7105;BME280;3594;42.152;24.714;2023-02-13T09:03:48;-23977.59;;;5.76;94.96
7105;BME280;3594;42.152;24.714;2023-02-13T09:06:14;-23976.16;;;5.71;93.54
7105;BME280;3594;42.152;24.714;2023-02-13T09:08:39;-23978.72;;;5.80;93.22
7105;BME280;3594;42.152;24.714;2023-02-13T09:11:05;-23984.69;;;6.01;92.76
7105;BME280;3594;42.152;24.714;2023-02-13T09:13:35;-23990.53;;;6.22;91.66
7105;BME280;3594;42.152;24.714;2023-02-13T09:16:05;-23984.97;;;6.02;90.91
7105;BME280;3594;42.152;24.714;2023-02-13T09:18:31;-23990.66;;;6.22;90.29
7105;BME280;3594;42.152;24.714;2023-02-13T09:21:05;-23990.94;;;6.24;89.04
7105;BME280;3594;42.152;24.714;2023-02-13T09:23:32;-23991.81;;;6.27;88.38
7105;BME280;3594;42.152;24.714;2023-02-13T09:26:03;-24006.72;;;6.80;86.19
7105;BME280;3594;42.152;24.714;2023-02-13T09:28:31;-24000.59;;;6.58;86.96
7105;BME280;3594;42.152;24.714;2023-02-13T09:30:57;-23991.53;;;6.26;87.93
7105;BME280;3594;42.152;24.714;2023-02-13T09:33:24;-23989.25;;;6.17;89.22
7105;BME280;3594;42.152;24.714;2023-02-13T09:35:49;-24000.59;;;6.58;88.63
7105;BME280;3594;42.152;24.714;2023-02-13T09:38:15;-24015.22;;;7.10;83.09
7105;BME280;3594;42.152;24.714;2023-02-13T09:40:46;-24018.47;;;7.22;82.33
7105;BME280;3594;42.152;24.714;2023-02-13T09:43:18;-24013.22;;;7.03;82.60
7105;BME280;3594;42.152;24.714;2023-02-13T09:45:49;-24019.91;;;7.27;81.47
7105;BME280;3594;42.152;24.714;2023-02-13T09:48:35;-24025.28;;;7.46;78.26
7105;BME280;3594;42.152;24.714;2023-02-13T09:51:03;-24025.28;;;7.46;79.38
7105;BME280;3594;42.152;24.714;2023-02-13T09:53:28;-24022.59;;;7.36;77.65
7105;BME280;3594;42.152;24.714;2023-02-13T09:56:15;-24021.88;;;7.34;76.60
7105;BME280;3594;42.152;24.714;2023-02-13T09:58:51;-24032.50;;;7.72;74.63
7105;BME280;3594;42.152;24.714;2023-02-13T10:01:30;-24038.47;;;7.93;73.68
7105;BME280;3594;42.152;24.714;2023-02-13T10:06:38;-24041.72;;;8.05;72.86
7105;BME280;3594;42.152;24.714;2023-02-13T10:17:43;-24047.38;;;8.25;69.11
7105;BME280;3594;42.152;24.714;2023-02-13T10:20:24;-24050.66;;;8.36;68.25
7105;BME280;3594;42.152;24.714;2023-02-13T10:28:29;-24058.72;;;8.65;66.83
7105;BME280;3594;42.152;24.714;2023-02-13T10:31:02;-24058.00;;;8.63;66.80
7105;BME280;3594;42.152;24.714;2023-02-13T10:33:45;-24055.31;;;8.53;67.79
7105;BME280;3594;42.152;24.714;2023-02-13T10:36:17;-24065.50;;;8.90;67.14
7105;BME280;3594;42.152;24.714;2023-02-13T10:41:23;-24076.38;;;9.28;64.14
7105;BME280;3594;42.152;24.714;2023-02-13T10:52:04;-24071.16;;;9.10;62.96
7105;BME280;3594;42.152;24.714;2023-02-13T10:54:51;-24075.53;;;9.25;61.50
7105;BME280;3594;42.152;24.714;2023-02-13T11:00:33;-24086.44;;;9.64;61.32
7105;BME280;3594;42.152;24.714;2023-02-13T11:03:00;-24078.66;;;9.37;59.88
7105;BME280;3594;42.152;24.714;2023-02-13T11:05:45;-24078.78;;;9.37;58.86
7105;BME280;3594;42.152;24.714;2023-02-13T11:10:47;-24084.03;;;9.56;59.38
7105;BME280;3594;42.152;24.714;2023-02-13T11:13:25;-24087.41;;;9.68;59.00
7105;BME280;3594;42.152;24.714;2023-02-13T11:16:03;-24089.38;;;9.75;58.04
7105;BME280;3594;42.152;24.714;2023-02-13T11:18:35;-24091.78;;;9.84;57.68
7105;BME280;3594;42.152;24.714;2023-02-13T11:21:04;-24091.50;;;9.83;58.14
7105;BME280;3594;42.152;24.714;2023-02-13T11:23:35;-24094.19;;;9.92;56.85
7105;BME280;3594;42.152;24.714;2023-02-13T11:26:07;-24081.06;;;9.45;56.95
7105;BME280;3594;42.152;24.714;2023-02-13T11:28:44;-24094.34;;;9.93;56.44
7105;BME280;3594;42.152;24.714;2023-02-13T11:33:44;-24087.56;;;9.68;55.62
7105;BME280;3594;42.152;24.714;2023-02-13T11:36:16;-24089.81;;;9.76;55.24
7105;BME280;3594;42.152;24.714;2023-02-13T11:38:56;-24101.13;;;10.17;54.98
7105;BME280;3594;42.152;24.714;2023-02-13T11:41:23;-24092.63;;;9.87;54.68
7105;BME280;3594;42.152;24.714;2023-02-13T11:43:53;-24100.84;;;10.16;54.12
7105;BME280;3594;42.152;24.714;2023-02-13T11:46:29;-24102.38;;;10.22;51.88
7105;BME280;3594;42.152;24.714;2023-02-13T11:49:16;-24097.03;;;10.02;52.66
7105;BME280;3594;42.152;24.714;2023-02-13T11:51:51;-24081.19;;;9.46;52.86
7105;BME280;3594;42.152;24.714;2023-02-13T11:57:23;-24091.22;;;9.82;53.66
7105;BME280;3594;42.152;24.714;2023-02-13T11:59:51;-24088.53;;;9.72;53.99
7105;BME280;3594;42.152;24.714;2023-02-13T12:02:28;-24095.19;;;9.96;52.92
7105;BME280;3594;42.152;24.714;2023-02-13T12:05:21;-24098.16;;;10.06;53.23
7105;BME280;3594;42.152;24.714;2023-02-13T12:07:47;-24096.44;;;10.00;50.22
7105;BME280;3594;42.152;24.714;2023-02-13T12:10:23;-24102.53;;;10.22;49.84
7105;BME280;3594;42.152;24.714;2023-02-13T12:15:32;-24098.56;;;10.08;50.00
7105;BME280;3594;42.152;24.714;2023-02-13T12:20:43;-24109.31;;;10.46;48.77
7105;BME280;3594;42.152;24.714;2023-02-13T12:23:20;-24111.41;;;10.54;48.31
7105;BME280;3594;42.152;24.714;2023-02-13T12:26:22;-24113.25;;;10.60;47.95
7105;BME280;3594;42.152;24.714;2023-02-13T12:39:35;-24111.69;;;10.55;47.82
7105;BME280;3594;42.152;24.714;2023-02-13T12:45:31;-24118.63;;;10.80;46.62
7105;BME280;3594;42.152;24.714;2023-02-13T13:13:20;-24108.88;;;10.45;44.78
7105;BME280;3594;42.152;24.714;2023-02-13T13:16:10;-24103.38;;;10.25;45.08
7105;BME280;3594;42.152;24.714;2023-02-13T13:26:38;-24108.16;;;10.42;44.62
7105;BME280;3594;42.152;24.714;2023-02-13T13:29:44;-24111.69;;;10.55;44.31
7105;BME280;3594;42.152;24.714;2023-02-13T13:32:15;-24111.84;;;10.55;44.52
7105;BME280;3594;42.152;24.714;2023-02-13T13:34:42;-24120.03;;;10.85;44.41
7105;BME280;3594;42.152;24.714;2023-02-13T13:43:03;-24115.22;;;10.68;43.35
7105;BME280;3594;42.152;24.714;2023-02-13T13:48:49;-24121.72;;;10.91;44.04
7105;BME280;3594;42.152;24.714;2023-02-13T13:51:17;-24119.03;;;10.81;43.29
7105;BME280;3594;42.152;24.714;2023-02-13T13:59:53;-24120.59;;;10.87;43.18
7105;BME280;3594;42.152;24.714;2023-02-13T14:07:36;-24107.63;;;10.40;43.32
7105;BME280;3594;42.152;24.714;2023-02-13T14:10:05;-24108.31;;;10.43;43.53
7105;BME280;3594;42.152;24.714;2023-02-13T14:14:58;-24112.97;;;10.59;43.63
7105;BME280;3594;42.152;24.714;2023-02-13T14:17:59;-24110.00;;;10.49;43.79
7105;BME280;3594;42.152;24.714;2023-02-13T14:28:37;-24105.63;;;10.33;44.06
7105;BME280;3594;42.152;24.714;2023-02-13T14:31:24;-24097.72;;;10.05;44.45
7105;BME280;3594;42.152;24.714;2023-02-13T14:34:02;-24097.59;;;10.04;44.65
7105;BME280;3594;42.152;24.714;2023-02-13T14:36:32;-24098.16;;;10.06;44.79
7105;BME280;3594;42.152;24.714;2023-02-13T14:46:47;-24087.69;;;9.69;45.47
7105;BME280;3594;42.152;24.714;2023-02-13T14:49:25;-24081.06;;;9.45;45.23
7105;BME280;3594;42.152;24.714;2023-02-13T14:51:55;-24077.09;;;9.31;45.90
7105;BME280;3594;42.152;24.714;2023-02-13T14:54:28;-24078.78;;;9.37;45.92
7105;BME280;3594;42.152;24.714;2023-02-13T14:57:18;-24083.59;;;9.54;46.44
7105;BME280;3594;42.152;24.714;2023-02-13T15:00:07;-24072.44;;;9.14;46.39
7105;BME280;3594;42.152;24.714;2023-02-13T15:02:41;-24076.53;;;9.29;46.30
7105;BME280;3594;42.152;24.714;2023-02-13T15:05:13;-24071.31;;;9.10;46.82
7105;BME280;3594;42.152;24.714;2023-02-13T15:07:51;-24074.25;;;9.21;46.95
7105;BME280;3594;42.152;24.714;2023-02-13T15:13:00;-24072.28;;;9.14;47.45
7105;BME280;3594;42.152;24.714;2023-02-13T15:15:30;-24072.84;;;9.16;47.59
7105;BME280;3594;42.152;24.714;2023-02-13T15:18:01;-24069.47;;;9.04;48.09
7105;BME280;3594;42.152;24.714;2023-02-13T15:20:29;-24065.22;;;8.88;48.10
7105;BME280;3594;42.152;24.714;2023-02-13T15:22:57;-24026.13;;;7.49;48.62
7105;BME280;3594;42.152;24.714;2023-02-13T15:25:33;-24064.38;;;8.85;48.93
7105;BME280;3594;42.152;24.714;2023-02-13T15:28:01;-24058.16;;;8.63;48.61
7105;BME280;3594;42.152;24.714;2023-02-13T15:30:30;-24052.78;;;8.44;48.70
7105;BME280;3594;42.152;24.714;2023-02-13T15:33:01;-24057.88;;;8.62;49.16
7105;BME280;3594;42.152;24.714;2023-02-13T15:35:30;-24054.59;;;8.51;49.57
7105;BME280;3594;42.152;24.714;2023-02-13T15:37:56;-24046.53;;;8.22;49.35
7105;BME280;3594;42.152;24.714;2023-02-13T15:40:32;-24052.34;;;8.42;50.14
7105;BME280;3594;42.152;24.714;2023-02-13T15:43:02;-24043.41;;;8.11;50.61
7105;BME280;3594;42.152;24.714;2023-02-13T15:45:28;-24037.47;;;7.89;50.55
7105;BME280;3594;42.152;24.714;2023-02-13T15:47:55;-24042.72;;;8.08;50.74
7105;BME280;3594;42.152;24.714;2023-02-13T15:50:33;-24042.16;;;8.06;50.88
7105;BME280;3594;42.152;24.714;2023-02-13T15:53:02;-24034.34;;;7.78;51.08
7105;BME280;3594;42.152;24.714;2023-02-13T15:55:31;-24034.22;;;7.78;51.14
7105;BME280;3594;42.152;24.714;2023-02-13T15:57:59;-24026.41;;;7.50;51.71
7105;BME280;3594;42.152;24.714;2023-02-13T16:00:31;-24031.81;;;7.69;52.29
7105;BME280;3594;42.152;24.714;2023-02-13T16:02:59;-24022.44;;;7.36;52.20
7105;BME280;3594;42.152;24.714;2023-02-13T16:05:27;-24021.16;;;7.31;52.65
7105;BME280;3594;42.152;24.714;2023-02-13T16:07:56;-24026.97;;;7.52;52.87
7105;BME280;3594;42.152;24.714;2023-02-13T16:10:34;-24018.91;;;7.23;53.36
7105;BME280;3594;42.152;24.714;2023-02-13T16:13:05;-24015.66;;;7.12;53.96
7105;BME280;3594;42.152;24.714;2023-02-13T16:15:33;-24015.22;;;7.10;54.15
7105;BME280;3594;42.152;24.714;2023-02-13T16:18:01;-24013.81;;;7.05;54.34